sensor_id;sensor_type;location;lat;lon;timestamp;temperature;humidity
42683;DHT22;28293;50.930;3.464;2023-07-22T00:01:21;17.30;73.30
42683;DHT22;28293;50.930;3.464;2023-07-22T00:03:47;17.30;73.20
42683;DHT22;28293;50.930;3.464;2023-07-22T00:06:13;17.30;73.20
42683;DHT22;28293;50.930;3.464;2023-07-22T00:08:39;17.30;73.20
42683;DHT22;28293;50.930;3.464;2023-07-22T00:11:05;17.30;73.30
42683;DHT22;28293;50.930;3.464;2023-07-22T00:13:32;17.30;73.10
42683;DHT22;28293;50.930;3.464;2023-07-22T00:15:58;17.30;73.30
42683;DHT22;28293;50.930;3.464;2023-07-22T00:18:30;17.30;73.30
42683;DHT22;28293;50.930;3.464;2023-07-22T00:20:57;17.20;73.70
42683;DHT22;28293;50.930;3.464;2023-07-22T00:23:23;17.20;73.80
42683;DHT22;28293;50.930;3.464;2023-07-22T00:25:49;17.20;73.60
42683;DHT22;28293;50.930;3.464;2023-07-22T00:28:15;17.20;73.80
42683;DHT22;28293;50.930;3.464;2023-07-22T00:30:41;17.20;73.90
42683;DHT22;28293;50.930;3.464;2023-07-22T00:33:08;17.10;73.90
42683;DHT22;28293;50.930;3.464;2023-07-22T00:35:34;17.10;74.10
42683;DHT22;28293;50.930;3.464;2023-07-22T00:38:01;17.10;74.40
42683;DHT22;28293;50.930;3.464;2023-07-22T00:40:27;17.10;74.50
42683;DHT22;28293;50.930;3.464;2023-07-22T00:42:56;17.10;74.50
42683;DHT22;28293;50.930;3.464;2023-07-22T00:45:21;17.10;74.60
42683;DHT22;28293;50.930;3.464;2023-07-22T00:47:48;17.10;74.70
42683;DHT22;28293;50.930;3.464;2023-07-22T00:50:14;17.10;74.70
42683;DHT22;28293;50.930;3.464;2023-07-22T00:52:39;17.10;74.80
42683;DHT22;28293;50.930;3.464;2023-07-22T00:55:06;17.10;74.60
42683;DHT22;28293;50.930;3.464;2023-07-22T00:57:33;17.10;74.70
42683;DHT22;28293;50.930;3.464;2023-07-22T00:59:59;17.00;74.80
42683;DHT22;28293;50.930;3.464;2023-07-22T01:02:25;17.00;75.10
42683;DHT22;28293;50.930;3.464;2023-07-22T01:04:51;17.00;75.10
42683;DHT22;28293;50.930;3.464;2023-07-22T01:07:17;17.00;75.20
42683;DHT22;28293;50.930;3.464;2023-07-22T01:09:44;17.00;75.30
42683;DHT22;28293;50.930;3.464;2023-07-22T01:12:10;17.10;75.10
42683;DHT22;28293;50.930;3.464;2023-07-22T01:14:38;17.10;75.20
42683;DHT22;28293;50.930;3.464;2023-07-22T01:17:06;17.10;75.30
42683;DHT22;28293;50.930;3.464;2023-07-22T01:19:33;17.10;75.30
42683;DHT22;28293;50.930;3.464;2023-07-22T01:22:00;17.10;75.50
42683;DHT22;28293;50.930;3.464;2023-07-22T01:24:28;17.10;75.30
42683;DHT22;28293;50.930;3.464;2023-07-22T01:26:53;17.00;75.80
42683;DHT22;28293;50.930;3.464;2023-07-22T01:29:19;17.10;75.70
42683;DHT22;28293;50.930;3.464;2023-07-22T01:31:49;17.00;75.90
42683;DHT22;28293;50.930;3.464;2023-07-22T01:34:15;17.00;76.10
42683;DHT22;28293;50.930;3.464;2023-07-22T01:36:40;17.00;76.20
42683;DHT22;28293;50.930;3.464;2023-07-22T01:39:06;17.00;76.10
42683;DHT22;28293;50.930;3.464;2023-07-22T01:41:32;16.90;76.40
42683;DHT22;28293;50.930;3.464;2023-07-22T01:43:58;16.90;76.50
42683;DHT22;28293;50.930;3.464;2023-07-22T01:46:25;16.80;76.80
42683;DHT22;28293;50.930;3.464;2023-07-22T01:48:51;16.80;77.10
42683;DHT22;28293;50.930;3.464;2023-07-22T01:51:16;16.80;77.10
42683;DHT22;28293;50.930;3.464;2023-07-22T01:53:42;16.80;77.30
42683;DHT22;28293;50.930;3.464;2023-07-22T01:56:08;16.80;77.30
42683;DHT22;28293;50.930;3.464;2023-07-22T01:58:34;16.80;77.50
42683;DHT22;28293;50.930;3.464;2023-07-22T02:01:00;16.80;77.50
42683;DHT22;28293;50.930;3.464;2023-07-22T02:03:25;16.70;77.80
42683;DHT22;28293;50.930;3.464;2023-07-22T02:05:51;16.60;78.00
42683;DHT22;28293;50.930;3.464;2023-07-22T02:08:17;16.60;78.10
42683;DHT22;28293;50.930;3.464;2023-07-22T02:10:42;16.60;78.30
42683;DHT22;28293;50.930;3.464;2023-07-22T02:13:09;16.50;78.80
42683;DHT22;28293;50.930;3.464;2023-07-22T02:15:35;16.50;78.90
42683;DHT22;28293;50.930;3.464;2023-07-22T02:18:01;16.50;79.20
42683;DHT22;28293;50.930;3.464;2023-07-22T02:20:26;16.50;79.10
42683;DHT22;28293;50.930;3.464;2023-07-22T02:22:54;16.60;79.10
42683;DHT22;28293;50.930;3.464;2023-07-22T02:25:20;16.50;79.10
42683;DHT22;28293;50.930;3.464;2023-07-22T02:27:46;16.50;79.20
42683;DHT22;28293;50.930;3.464;2023-07-22T02:30:12;16.50;79.10
42683;DHT22;28293;50.930;3.464;2023-07-22T02:32:39;16.60;79.20
42683;DHT22;28293;50.930;3.464;2023-07-22T02:35:09;16.60;79.50
42683;DHT22;28293;50.930;3.464;2023-07-22T02:37:37;16.60;79.30
42683;DHT22;28293;50.930;3.464;2023-07-22T02:40:03;16.50;79.40
42683;DHT22;28293;50.930;3.464;2023-07-22T02:42:39;16.50;79.60
42683;DHT22;28293;50.930;3.464;2023-07-22T02:45:05;16.50;79.70
42683;DHT22;28293;50.930;3.464;2023-07-22T02:47:33;16.50;79.80
42683;DHT22;28293;50.930;3.464;2023-07-22T02:50:02;16.40;79.80
42683;DHT22;28293;50.930;3.464;2023-07-22T02:52:30;16.40;79.80
42683;DHT22;28293;50.930;3.464;2023-07-22T02:55:14;16.30;80.00
42683;DHT22;28293;50.930;3.464;2023-07-22T02:57:41;16.30;79.90
42683;DHT22;28293;50.930;3.464;2023-07-22T03:00:08;16.30;80.20
42683;DHT22;28293;50.930;3.464;2023-07-22T03:02:37;16.30;80.30
42683;DHT22;28293;50.930;3.464;2023-07-22T03:05:04;16.20;80.40
42683;DHT22;28293;50.930;3.464;2023-07-22T03:07:37;16.20;80.80
42683;DHT22;28293;50.930;3.464;2023-07-22T03:10:04;16.10;80.80
42683;DHT22;28293;50.930;3.464;2023-07-22T03:12:31;16.10;81.00
42683;DHT22;28293;50.930;3.464;2023-07-22T03:14:56;16.10;81.30
42683;DHT22;28293;50.930;3.464;2023-07-22T03:17:22;16.00;81.50
42683;DHT22;28293;50.930;3.464;2023-07-22T03:19:48;16.00;81.60
42683;DHT22;28293;50.930;3.464;2023-07-22T03:22:15;15.90;81.70
42683;DHT22;28293;50.930;3.464;2023-07-22T03:24:42;16.00;81.70
42683;DHT22;28293;50.930;3.464;2023-07-22T03:27:07;15.90;81.80
42683;DHT22;28293;50.930;3.464;2023-07-22T03:29:33;15.90;81.90
42683;DHT22;28293;50.930;3.464;2023-07-22T03:31:59;15.80;81.90
42683;DHT22;28293;50.930;3.464;2023-07-22T03:34:29;15.80;82.10
42683;DHT22;28293;50.930;3.464;2023-07-22T03:36:55;15.80;82.20
42683;DHT22;28293;50.930;3.464;2023-07-22T03:39:22;15.80;82.30
42683;DHT22;28293;50.930;3.464;2023-07-22T03:41:47;15.80;82.40
42683;DHT22;28293;50.930;3.464;2023-07-22T03:44:13;15.70;82.60
42683;DHT22;28293;50.930;3.464;2023-07-22T03:46:39;15.70;82.50
42683;DHT22;28293;50.930;3.464;2023-07-22T03:49:05;15.70;82.60
42683;DHT22;28293;50.930;3.464;2023-07-22T03:51:32;15.70;82.60
42683;DHT22;28293;50.930;3.464;2023-07-22T03:53:58;15.70;82.70
42683;DHT22;28293;50.930;3.464;2023-07-22T03:56:24;15.70;82.80
42683;DHT22;28293;50.930;3.464;2023-07-22T03:58:51;15.60;82.90
42683;DHT22;28293;50.930;3.464;2023-07-22T04:01:17;15.60;83.00
42683;DHT22;28293;50.930;3.464;2023-07-22T04:03:43;15.60;83.00
42683;DHT22;28293;50.930;3.464;2023-07-22T04:06:08;15.70;82.90
42683;DHT22;28293;50.930;3.464;2023-07-22T04:08:34;15.70;82.90
42683;DHT22;28293;50.930;3.464;2023-07-22T04:10:59;15.60;83.00
42683;DHT22;28293;50.930;3.464;2023-07-22T04:13:26;15.60;83.00
42683;DHT22;28293;50.930;3.464;2023-07-22T04:15:52;15.60;83.00
42683;DHT22;28293;50.930;3.464;2023-07-22T04:18:19;15.60;83.00
42683;DHT22;28293;50.930;3.464;2023-07-22T04:20:46;15.60;83.00
42683;DHT22;28293;50.930;3.464;2023-07-22T04:23:12;15.60;83.20
42683;DHT22;28293;50.930;3.464;2023-07-22T04:25:44;15.60;83.10
42683;DHT22;28293;50.930;3.464;2023-07-22T04:28:10;15.70;83.00
42683;DHT22;28293;50.930;3.464;2023-07-22T04:30:37;15.60;82.90
42683;DHT22;28293;50.930;3.464;2023-07-22T04:33:03;15.70;82.90
42683;DHT22;28293;50.930;3.464;2023-07-22T04:35:33;15.70;82.90
42683;DHT22;28293;50.930;3.464;2023-07-22T04:37:59;15.60;82.70
42683;DHT22;28293;50.930;3.464;2023-07-22T04:40:25;15.60;82.70
42683;DHT22;28293;50.930;3.464;2023-07-22T04:42:51;15.70;82.70
42683;DHT22;28293;50.930;3.464;2023-07-22T04:45:17;15.70;82.60
42683;DHT22;28293;50.930;3.464;2023-07-22T04:47:46;15.70;82.60
42683;DHT22;28293;50.930;3.464;2023-07-22T04:50:14;15.70;82.30
42683;DHT22;28293;50.930;3.464;2023-07-22T04:52:45;15.70;82.30
42683;DHT22;28293;50.930;3.464;2023-07-22T04:55:11;15.70;82.50
42683;DHT22;28293;50.930;3.464;2023-07-22T04:57:41;15.70;82.40
42683;DHT22;28293;50.930;3.464;2023-07-22T05:00:08;15.80;82.20
42683;DHT22;28293;50.930;3.464;2023-07-22T05:02:35;15.90;82.10
42683;DHT22;28293;50.930;3.464;2023-07-22T05:05:01;15.90;82.00
42683;DHT22;28293;50.930;3.464;2023-07-22T05:07:26;16.00;81.30
42683;DHT22;28293;50.930;3.464;2023-07-22T05:09:52;16.00;81.20
42683;DHT22;28293;50.930;3.464;2023-07-22T05:12:18;16.00;81.50
42683;DHT22;28293;50.930;3.464;2023-07-22T05:14:47;16.10;81.00
42683;DHT22;28293;50.930;3.464;2023-07-22T05:17:13;16.20;81.10
42683;DHT22;28293;50.930;3.464;2023-07-22T05:19:39;16.20;80.60
42683;DHT22;28293;50.930;3.464;2023-07-22T05:22:05;16.20;80.80
42683;DHT22;28293;50.930;3.464;2023-07-22T05:24:30;16.30;80.30
42683;DHT22;28293;50.930;3.464;2023-07-22T05:26:56;16.40;80.10
42683;DHT22;28293;50.930;3.464;2023-07-22T05:29:22;16.70;80.10
42683;DHT22;28293;50.930;3.464;2023-07-22T05:31:47;17.30;78.00
42683;DHT22;28293;50.930;3.464;2023-07-22T05:34:13;17.60;75.70
42683;DHT22;28293;50.930;3.464;2023-07-22T05:36:39;17.80;75.10
42683;DHT22;28293;50.930;3.464;2023-07-22T05:39:05;18.30;73.10
42683;DHT22;28293;50.930;3.464;2023-07-22T05:41:33;18.80;71.70
42683;DHT22;28293;50.930;3.464;2023-07-22T05:43:59;18.60;71.40
42683;DHT22;28293;50.930;3.464;2023-07-22T05:46:24;18.40;72.30
42683;DHT22;28293;50.930;3.464;2023-07-22T05:48:50;18.10;73.30
42683;DHT22;28293;50.930;3.464;2023-07-22T05:51:17;17.80;73.90
42683;DHT22;28293;50.930;3.464;2023-07-22T05:53:42;17.50;75.20
42683;DHT22;28293;50.930;3.464;2023-07-22T05:56:08;17.40;75.50
42683;DHT22;28293;50.930;3.464;2023-07-22T05:58:34;17.50;75.40
42683;DHT22;28293;50.930;3.464;2023-07-22T06:01:00;17.50;75.50
42683;DHT22;28293;50.930;3.464;2023-07-22T06:03:26;17.70;75.10
42683;DHT22;28293;50.930;3.464;2023-07-22T06:05:51;17.70;74.80
42683;DHT22;28293;50.930;3.464;2023-07-22T06:08:17;17.60;75.40
42683;DHT22;28293;50.930;3.464;2023-07-22T06:10:43;17.60;75.50
42683;DHT22;28293;50.930;3.464;2023-07-22T06:13:09;17.60;75.50
42683;DHT22;28293;50.930;3.464;2023-07-22T06:15:34;17.80;75.40
42683;DHT22;28293;50.930;3.464;2023-07-22T06:18:01;17.80;75.10
42683;DHT22;28293;50.930;3.464;2023-07-22T06:20:27;18.00;74.90
42683;DHT22;28293;50.930;3.464;2023-07-22T06:22:52;18.00;74.40
42683;DHT22;28293;50.930;3.464;2023-07-22T06:25:18;18.00;75.20
42683;DHT22;28293;50.930;3.464;2023-07-22T06:27:44;18.00;74.70
42683;DHT22;28293;50.930;3.464;2023-07-22T06:30:10;18.10;75.00
42683;DHT22;28293;50.930;3.464;2023-07-22T06:32:37;17.90;74.90
42683;DHT22;28293;50.930;3.464;2023-07-22T06:35:03;17.90;75.60
42683;DHT22;28293;50.930;3.464;2023-07-22T06:37:30;17.90;75.50
42683;DHT22;28293;50.930;3.464;2023-07-22T06:39:55;17.90;75.60
42683;DHT22;28293;50.930;3.464;2023-07-22T06:42:21;17.70;75.40
42683;DHT22;28293;50.930;3.464;2023-07-22T06:44:47;17.60;76.20
42683;DHT22;28293;50.930;3.464;2023-07-22T06:47:13;17.50;75.90
42683;DHT22;28293;50.930;3.464;2023-07-22T06:49:39;17.50;76.10
42683;DHT22;28293;50.930;3.464;2023-07-22T06:52:06;17.40;76.30
42683;DHT22;28293;50.930;3.464;2023-07-22T06:54:32;17.40;78.00
42683;DHT22;28293;50.930;3.464;2023-07-22T06:56:59;17.30;79.00
42683;DHT22;28293;50.930;3.464;2023-07-22T06:59:25;17.20;79.80
42683;DHT22;28293;50.930;3.464;2023-07-22T07:01:52;17.30;79.90
42683;DHT22;28293;50.930;3.464;2023-07-22T07:04:17;17.20;80.50
42683;DHT22;28293;50.930;3.464;2023-07-22T07:06:43;17.30;79.90
42683;DHT22;28293;50.930;3.464;2023-07-22T07:09:09;17.50;80.60
42683;DHT22;28293;50.930;3.464;2023-07-22T07:11:35;17.60;81.00
42683;DHT22;28293;50.930;3.464;2023-07-22T07:14:00;17.60;80.60
42683;DHT22;28293;50.930;3.464;2023-07-22T07:16:30;17.70;79.90
42683;DHT22;28293;50.930;3.464;2023-07-22T07:19:00;18.00;80.20
42683;DHT22;28293;50.930;3.464;2023-07-22T07:21:27;18.00;79.80
42683;DHT22;28293;50.930;3.464;2023-07-22T07:23:53;18.10;79.10
42683;DHT22;28293;50.930;3.464;2023-07-22T07:26:20;18.10;79.30
42683;DHT22;28293;50.930;3.464;2023-07-22T07:28:47;18.10;78.60
42683;DHT22;28293;50.930;3.464;2023-07-22T07:31:13;18.10;78.60
42683;DHT22;28293;50.930;3.464;2023-07-22T07:33:39;18.30;77.90
42683;DHT22;28293;50.930;3.464;2023-07-22T07:36:05;18.50;78.30
42683;DHT22;28293;50.930;3.464;2023-07-22T07:38:31;18.60;76.60
42683;DHT22;28293;50.930;3.464;2023-07-22T07:41:06;18.70;76.20
42683;DHT22;28293;50.930;3.464;2023-07-22T07:43:37;18.90;76.20
42683;DHT22;28293;50.930;3.464;2023-07-22T07:46:20;19.00;76.20
42683;DHT22;28293;50.930;3.464;2023-07-22T07:48:48;19.30;74.70
42683;DHT22;28293;50.930;3.464;2023-07-22T07:51:15;19.30;73.70
42683;DHT22;28293;50.930;3.464;2023-07-22T07:53:41;19.60;74.60
42683;DHT22;28293;50.930;3.464;2023-07-22T07:56:08;19.90;73.50
42683;DHT22;28293;50.930;3.464;2023-07-22T07:58:34;20.20;70.80
42683;DHT22;28293;50.930;3.464;2023-07-22T08:01:00;20.50;71.70
42683;DHT22;28293;50.930;3.464;2023-07-22T08:03:25;20.60;70.00
42683;DHT22;28293;50.930;3.464;2023-07-22T08:05:51;21.00;69.10
42683;DHT22;28293;50.930;3.464;2023-07-22T08:08:17;21.00;67.60
42683;DHT22;28293;50.930;3.464;2023-07-22T08:10:43;20.90;66.50
42683;DHT22;28293;50.930;3.464;2023-07-22T08:13:10;20.80;67.10
42683;DHT22;28293;50.930;3.464;2023-07-22T08:15:35;20.90;67.90
42683;DHT22;28293;50.930;3.464;2023-07-22T08:18:01;20.50;67.80
42683;DHT22;28293;50.930;3.464;2023-07-22T08:20:27;20.60;68.20
42683;DHT22;28293;50.930;3.464;2023-07-22T08:22:53;20.60;66.80
42683;DHT22;28293;50.930;3.464;2023-07-22T08:25:18;20.60;67.80
42683;DHT22;28293;50.930;3.464;2023-07-22T08:27:44;20.90;67.20
42683;DHT22;28293;50.930;3.464;2023-07-22T08:30:11;21.20;66.10
42683;DHT22;28293;50.930;3.464;2023-07-22T08:32:36;21.10;65.20
42683;DHT22;28293;50.930;3.464;2023-07-22T08:35:02;21.10;65.60
42683;DHT22;28293;50.930;3.464;2023-07-22T08:37:28;21.20;65.40
42683;DHT22;28293;50.930;3.464;2023-07-22T08:39:54;21.60;63.60
42683;DHT22;28293;50.930;3.464;2023-07-22T08:42:20;21.90;62.30
42683;DHT22;28293;50.930;3.464;2023-07-22T08:44:48;22.10;63.40
42683;DHT22;28293;50.930;3.464;2023-07-22T08:47:16;22.10;61.40
42683;DHT22;28293;50.930;3.464;2023-07-22T08:49:49;22.20;62.20
42683;DHT22;28293;50.930;3.464;2023-07-22T08:52:16;22.60;60.20
42683;DHT22;28293;50.930;3.464;2023-07-22T08:54:44;22.50;60.60
42683;DHT22;28293;50.930;3.464;2023-07-22T08:57:11;22.40;60.00
42683;DHT22;28293;50.930;3.464;2023-07-22T08:59:46;22.20;60.10
42683;DHT22;28293;50.930;3.464;2023-07-22T09:02:13;22.40;59.80
42683;DHT22;28293;50.930;3.464;2023-07-22T09:04:39;22.40;58.90
42683;DHT22;28293;50.930;3.464;2023-07-22T09:07:08;22.10;58.50
42683;DHT22;28293;50.930;3.464;2023-07-22T09:09:34;21.90;58.70
42683;DHT22;28293;50.930;3.464;2023-07-22T09:12:01;21.90;59.20
42683;DHT22;28293;50.930;3.464;2023-07-22T09:14:28;22.10;58.30
42683;DHT22;28293;50.930;3.464;2023-07-22T09:16:55;22.40;56.40
42683;DHT22;28293;50.930;3.464;2023-07-22T09:19:21;22.50;55.10
42683;DHT22;28293;50.930;3.464;2023-07-22T09:21:47;22.50;55.30
42683;DHT22;28293;50.930;3.464;2023-07-22T09:24:23;22.10;54.80
42683;DHT22;28293;50.930;3.464;2023-07-22T09:26:50;21.80;54.00
42683;DHT22;28293;50.930;3.464;2023-07-22T09:29:16;21.80;54.30
42683;DHT22;28293;50.930;3.464;2023-07-22T09:31:52;22.00;53.70
42683;DHT22;28293;50.930;3.464;2023-07-22T09:34:18;22.30;53.60
42683;DHT22;28293;50.930;3.464;2023-07-22T09:36:53;22.60;53.00
42683;DHT22;28293;50.930;3.464;2023-07-22T09:39:20;23.10;51.10
42683;DHT22;28293;50.930;3.464;2023-07-22T09:41:47;23.20;51.00
42683;DHT22;28293;50.930;3.464;2023-07-22T09:44:13;23.50;49.80
42683;DHT22;28293;50.930;3.464;2023-07-22T09:46:39;23.60;47.80
42683;DHT22;28293;50.930;3.464;2023-07-22T09:49:06;23.60;47.90
42683;DHT22;28293;50.930;3.464;2023-07-22T09:51:36;23.70;47.20
42683;DHT22;28293;50.930;3.464;2023-07-22T09:54:06;23.80;47.60
42683;DHT22;28293;50.930;3.464;2023-07-22T09:56:51;23.80;47.90
42683;DHT22;28293;50.930;3.464;2023-07-22T09:59:21;23.70;46.60
42683;DHT22;28293;50.930;3.464;2023-07-22T10:01:52;23.60;46.90
42683;DHT22;28293;50.930;3.464;2023-07-22T10:04:33;23.60;46.60
42683;DHT22;28293;50.930;3.464;2023-07-22T10:07:12;23.60;47.80
42683;DHT22;28293;50.930;3.464;2023-07-22T10:10:01;23.90;47.50
42683;DHT22;28293;50.930;3.464;2023-07-22T10:12:28;24.10;46.90
42683;DHT22;28293;50.930;3.464;2023-07-22T10:14:53;24.30;46.50
42683;DHT22;28293;50.930;3.464;2023-07-22T10:17:20;24.40;45.90
42683;DHT22;28293;50.930;3.464;2023-07-22T10:19:47;24.60;45.50
42683;DHT22;28293;50.930;3.464;2023-07-22T10:22:13;24.60;45.60
42683;DHT22;28293;50.930;3.464;2023-07-22T10:24:40;24.80;45.20
42683;DHT22;28293;50.930;3.464;2023-07-22T10:27:07;25.00;43.90
42683;DHT22;28293;50.930;3.464;2023-07-22T10:29:34;24.90;44.50
42683;DHT22;28293;50.930;3.464;2023-07-22T10:31:59;25.10;44.70
42683;DHT22;28293;50.930;3.464;2023-07-22T10:34:25;25.00;43.00
42683;DHT22;28293;50.930;3.464;2023-07-22T10:36:51;24.80;44.90
42683;DHT22;28293;50.930;3.464;2023-07-22T10:39:27;25.00;44.00
42683;DHT22;28293;50.930;3.464;2023-07-22T10:42:03;25.10;44.50
42683;DHT22;28293;50.930;3.464;2023-07-22T10:44:36;24.90;44.80
42683;DHT22;28293;50.930;3.464;2023-07-22T10:47:03;25.30;44.60
42683;DHT22;28293;50.930;3.464;2023-07-22T10:49:44;25.40;43.70
42683;DHT22;28293;50.930;3.464;2023-07-22T10:52:11;25.80;43.30
42683;DHT22;28293;50.930;3.464;2023-07-22T10:54:38;25.70;43.10
42683;DHT22;28293;50.930;3.464;2023-07-22T10:57:24;25.70;43.60
42683;DHT22;28293;50.930;3.464;2023-07-22T10:59:51;25.90;42.80
42683;DHT22;28293;50.930;3.464;2023-07-22T11:02:29;25.40;43.90
42683;DHT22;28293;50.930;3.464;2023-07-22T11:04:58;25.40;43.70
42683;DHT22;28293;50.930;3.464;2023-07-22T11:07:41;25.50;43.60
42683;DHT22;28293;50.930;3.464;2023-07-22T11:10:15;25.20;43.40
42683;DHT22;28293;50.930;3.464;2023-07-22T11:12:42;24.80;45.00
42683;DHT22;28293;50.930;3.464;2023-07-22T11:15:08;24.60;44.30
42683;DHT22;28293;50.930;3.464;2023-07-22T11:17:34;24.10;45.30
42683;DHT22;28293;50.930;3.464;2023-07-22T11:20:01;23.60;47.30
42683;DHT22;28293;50.930;3.464;2023-07-22T11:22:27;23.20;48.50
42683;DHT22;28293;50.930;3.464;2023-07-22T11:24:56;22.80;49.90
42683;DHT22;28293;50.930;3.464;2023-07-22T11:27:25;22.40;51.30
42683;DHT22;28293;50.930;3.464;2023-07-22T11:29:51;22.10;52.80
42683;DHT22;28293;50.930;3.464;2023-07-22T11:32:21;21.30;57.30
42683;DHT22;28293;50.930;3.464;2023-07-22T11:34:47;20.90;59.10
42683;DHT22;28293;50.930;3.464;2023-07-22T11:37:13;20.80;60.10
42683;DHT22;28293;50.930;3.464;2023-07-22T11:39:40;20.80;59.80
42683;DHT22;28293;50.930;3.464;2023-07-22T11:42:08;20.60;59.00
42683;DHT22;28293;50.930;3.464;2023-07-22T11:44:34;20.70;59.00
42683;DHT22;28293;50.930;3.464;2023-07-22T11:47:05;20.60;59.30
42683;DHT22;28293;50.930;3.464;2023-07-22T11:49:34;20.60;58.90
42683;DHT22;28293;50.930;3.464;2023-07-22T11:52:02;20.50;57.10
42683;DHT22;28293;50.930;3.464;2023-07-22T11:54:29;20.40;56.40
42683;DHT22;28293;50.930;3.464;2023-07-22T11:56:55;20.40;56.20
42683;DHT22;28293;50.930;3.464;2023-07-22T11:59:35;20.60;55.80
42683;DHT22;28293;50.930;3.464;2023-07-22T12:02:01;21.00;55.70
42683;DHT22;28293;50.930;3.464;2023-07-22T12:04:30;21.20;54.50
42683;DHT22;28293;50.930;3.464;2023-07-22T12:06:56;21.20;54.60
42683;DHT22;28293;50.930;3.464;2023-07-22T12:09:22;21.30;55.30
42683;DHT22;28293;50.930;3.464;2023-07-22T12:11:55;21.40;54.90
42683;DHT22;28293;50.930;3.464;2023-07-22T12:14:22;21.70;54.20
42683;DHT22;28293;50.930;3.464;2023-07-22T12:16:47;22.00;54.40
42683;DHT22;28293;50.930;3.464;2023-07-22T12:19:18;21.70;54.40
42683;DHT22;28293;50.930;3.464;2023-07-22T12:21:43;21.80;54.60
42683;DHT22;28293;50.930;3.464;2023-07-22T12:24:13;22.00;54.70
42683;DHT22;28293;50.930;3.464;2023-07-22T12:26:39;22.10;54.40
42683;DHT22;28293;50.930;3.464;2023-07-22T12:29:05;22.40;53.90
42683;DHT22;28293;50.930;3.464;2023-07-22T12:31:31;22.60;52.50
42683;DHT22;28293;50.930;3.464;2023-07-22T12:33:56;22.70;52.30
42683;DHT22;28293;50.930;3.464;2023-07-22T12:36:23;23.30;51.10
42683;DHT22;28293;50.930;3.464;2023-07-22T12:38:48;23.50;50.40
42683;DHT22;28293;50.930;3.464;2023-07-22T12:41:14;23.50;48.70
42683;DHT22;28293;50.930;3.464;2023-07-22T12:43:40;23.50;48.20
42683;DHT22;28293;50.930;3.464;2023-07-22T12:46:05;23.60;49.30
42683;DHT22;28293;50.930;3.464;2023-07-22T12:48:31;23.40;48.80
42683;DHT22;28293;50.930;3.464;2023-07-22T12:50:57;23.00;49.50
42683;DHT22;28293;50.930;3.464;2023-07-22T12:53:22;22.70;50.30
42683;DHT22;28293;50.930;3.464;2023-07-22T12:55:48;22.60;51.50
42683;DHT22;28293;50.930;3.464;2023-07-22T12:58:14;22.10;51.70
42683;DHT22;28293;50.930;3.464;2023-07-22T13:00:40;22.10;52.50
42683;DHT22;28293;50.930;3.464;2023-07-22T13:03:06;22.10;52.00
42683;DHT22;28293;50.930;3.464;2023-07-22T13:05:31;21.90;52.10
42683;DHT22;28293;50.930;3.464;2023-07-22T13:07:57;21.90;52.70
42683;DHT22;28293;50.930;3.464;2023-07-22T13:10:27;21.70;53.30
42683;DHT22;28293;50.930;3.464;2023-07-22T13:12:54;21.90;52.80
42683;DHT22;28293;50.930;3.464;2023-07-22T13:15:20;21.90;51.80
42683;DHT22;28293;50.930;3.464;2023-07-22T13:17:45;21.90;52.80
42683;DHT22;28293;50.930;3.464;2023-07-22T13:20:11;22.10;51.20
42683;DHT22;28293;50.930;3.464;2023-07-22T13:22:38;22.30;51.40
42683;DHT22;28293;50.930;3.464;2023-07-22T13:25:05;22.50;50.70
42683;DHT22;28293;50.930;3.464;2023-07-22T13:27:30;22.60;51.30
42683;DHT22;28293;50.930;3.464;2023-07-22T13:29:56;22.70;51.30
42683;DHT22;28293;50.930;3.464;2023-07-22T13:32:23;22.60;50.20
42683;DHT22;28293;50.930;3.464;2023-07-22T13:34:49;22.50;51.70
42683;DHT22;28293;50.930;3.464;2023-07-22T13:37:14;22.40;52.50
42683;DHT22;28293;50.930;3.464;2023-07-22T13:39:40;22.30;52.70
42683;DHT22;28293;50.930;3.464;2023-07-22T13:42:06;22.20;52.70
42683;DHT22;28293;50.930;3.464;2023-07-22T13:44:31;21.80;52.70
42683;DHT22;28293;50.930;3.464;2023-07-22T13:46:57;21.60;52.90
42683;DHT22;28293;50.930;3.464;2023-07-22T13:49:23;21.70;53.20
42683;DHT22;28293;50.930;3.464;2023-07-22T13:51:48;22.10;51.50
42683;DHT22;28293;50.930;3.464;2023-07-22T13:54:14;22.40;50.70
42683;DHT22;28293;50.930;3.464;2023-07-22T13:56:41;22.60;49.60
42683;DHT22;28293;50.930;3.464;2023-07-22T13:59:09;22.90;48.80
42683;DHT22;28293;50.930;3.464;2023-07-22T14:01:34;23.10;48.20
42683;DHT22;28293;50.930;3.464;2023-07-22T14:04:00;23.40;46.90
42683;DHT22;28293;50.930;3.464;2023-07-22T14:06:26;23.50;47.10
42683;DHT22;28293;50.930;3.464;2023-07-22T14:08:51;23.60;46.60
42683;DHT22;28293;50.930;3.464;2023-07-22T14:11:18;23.50;48.00
42683;DHT22;28293;50.930;3.464;2023-07-22T14:13:44;23.30;48.00
42683;DHT22;28293;50.930;3.464;2023-07-22T14:16:11;23.40;49.00
42683;DHT22;28293;50.930;3.464;2023-07-22T14:18:37;23.50;49.80
42683;DHT22;28293;50.930;3.464;2023-07-22T14:21:02;23.40;50.20
42683;DHT22;28293;50.930;3.464;2023-07-22T14:23:28;23.60;49.80
42683;DHT22;28293;50.930;3.464;2023-07-22T14:25:54;23.60;50.60
42683;DHT22;28293;50.930;3.464;2023-07-22T14:28:19;23.40;49.90
42683;DHT22;28293;50.930;3.464;2023-07-22T14:30:45;23.40;50.60
42683;DHT22;28293;50.930;3.464;2023-07-22T14:33:11;23.10;50.70
42683;DHT22;28293;50.930;3.464;2023-07-22T14:35:37;22.60;52.40
42683;DHT22;28293;50.930;3.464;2023-07-22T14:38:03;22.30;53.20
42683;DHT22;28293;50.930;3.464;2023-07-22T14:40:29;22.00;54.40
42683;DHT22;28293;50.930;3.464;2023-07-22T14:42:54;22.00;55.00
42683;DHT22;28293;50.930;3.464;2023-07-22T14:45:20;21.60;55.60
42683;DHT22;28293;50.930;3.464;2023-07-22T14:47:46;21.60;56.20
42683;DHT22;28293;50.930;3.464;2023-07-22T14:50:12;21.30;56.80
42683;DHT22;28293;50.930;3.464;2023-07-22T14:52:39;21.20;57.80
42683;DHT22;28293;50.930;3.464;2023-07-22T14:55:05;21.20;57.10
42683;DHT22;28293;50.930;3.464;2023-07-22T14:57:31;21.20;57.20
42683;DHT22;28293;50.930;3.464;2023-07-22T14:59:57;21.30;57.10
42683;DHT22;28293;50.930;3.464;2023-07-22T15:02:22;21.10;58.10
42683;DHT22;28293;50.930;3.464;2023-07-22T15:04:48;21.10;57.90
42683;DHT22;28293;50.930;3.464;2023-07-22T15:07:14;21.10;58.60
42683;DHT22;28293;50.930;3.464;2023-07-22T15:09:40;21.40;58.10
42683;DHT22;28293;50.930;3.464;2023-07-22T15:12:05;21.60;56.40
42683;DHT22;28293;50.930;3.464;2023-07-22T15:14:33;21.60;55.90
42683;DHT22;28293;50.930;3.464;2023-07-22T15:16:58;21.50;56.20
42683;DHT22;28293;50.930;3.464;2023-07-22T15:19:24;21.60;56.00
42683;DHT22;28293;50.930;3.464;2023-07-22T15:21:50;21.60;55.90
42683;DHT22;28293;50.930;3.464;2023-07-22T15:24:15;21.60;56.00
42683;DHT22;28293;50.930;3.464;2023-07-22T15:26:41;21.60;56.30
42683;DHT22;28293;50.930;3.464;2023-07-22T15:29:07;21.60;56.10